Terminal Aerodrome Forecast
Issued by NWS

Home | Current Version | Previous Version | Text Only | Print | Product List | Glossary On
Versions: 1 2 3 4 5 6 7 8 9 10 11 12
000
FTAK31 PAFA 271726
TAFAOR
TAF
PAOR 271726Z 2718/2818 33005KT P6SM FEW050 SCT100
     FM272000 VRB04KT P6SM BKN060 BKN100
     FM280400 VRB04KT P6SM SCT250
     FM281600 31005KT P6SM BKN080=

USA.gov is the U.S. government's official web portal to all federal, state and local government web resources and services.